sensor_id;sensor_type;location;lat;lon;timestamp;P1;durP1;ratioP1;P2;durP2;ratioP2
42134;SDS011;28312;43.460;11.810;2023-03-11T00:02:12;6.72;;;2.00;;
42134;SDS011;28312;43.460;11.810;2023-03-11T00:06:15;10.43;;;2.47;;
42134;SDS011;28312;43.460;11.810;2023-03-11T00:10:20;13.65;;;3.53;;
42134;SDS011;28312;43.460;11.810;2023-03-11T00:14:31;15.25;;;3.88;;
42134;SDS011;28312;43.460;11.810;2023-03-11T00:18:35;9.48;;;2.65;;
42134;SDS011;28312;43.460;11.810;2023-03-11T00:22:38;10.73;;;2.05;;
42134;SDS011;28312;43.460;11.810;2023-03-11T00:26:42;5.22;;;1.38;;
42134;SDS011;28312;43.460;11.810;2023-03-11T00:30:45;8.27;;;1.90;;
42134;SDS011;28312;43.460;11.810;2023-03-11T00:34:49;5.32;;;1.48;;
42134;SDS011;28312;43.460;11.810;2023-03-11T00:38:53;9.90;;;2.88;;
42134;SDS011;28312;43.460;11.810;2023-03-11T00:42:58;6.95;;;2.00;;
42134;SDS011;28312;43.460;11.810;2023-03-11T00:47:02;7.88;;;2.60;;
42134;SDS011;28312;43.460;11.810;2023-03-11T00:51:07;12.35;;;3.08;;
42134;SDS011;28312;43.460;11.810;2023-03-11T00:55:17;11.48;;;2.22;;
42134;SDS011;28312;43.460;11.810;2023-03-11T00:59:25;8.52;;;2.95;;
42134;SDS011;28312;43.460;11.810;2023-03-11T01:03:28;5.75;;;2.17;;
42134;SDS011;28312;43.460;11.810;2023-03-11T01:07:32;14.30;;;3.63;;
42134;SDS011;28312;43.460;11.810;2023-03-11T01:11:38;6.40;;;1.80;;
42134;SDS011;28312;43.460;11.810;2023-03-11T01:15:42;7.38;;;2.63;;
42134;SDS011;28312;43.460;11.810;2023-03-11T01:19:46;12.73;;;3.58;;
42134;SDS011;28312;43.460;11.810;2023-03-11T01:23:50;16.58;;;2.80;;
42134;SDS011;28312;43.460;11.810;2023-03-11T01:27:57;5.55;;;2.03;;
42134;SDS011;28312;43.460;11.810;2023-03-11T01:32:00;7.35;;;2.75;;
42134;SDS011;28312;43.460;11.810;2023-03-11T01:36:04;12.02;;;2.80;;
42134;SDS011;28312;43.460;11.810;2023-03-11T01:40:11;8.27;;;2.17;;
42134;SDS011;28312;43.460;11.810;2023-03-11T01:44:21;3.10;;;1.50;;
42134;SDS011;28312;43.460;11.810;2023-03-11T01:48:26;1.98;;;0.80;;
42134;SDS011;28312;43.460;11.810;2023-03-11T01:52:31;11.65;;;2.50;;
42134;SDS011;28312;43.460;11.810;2023-03-11T01:56:35;5.85;;;1.60;;
42134;SDS011;28312;43.460;11.810;2023-03-11T02:00:40;7.82;;;2.42;;
42134;SDS011;28312;43.460;11.810;2023-03-11T02:04:44;3.83;;;1.45;;
42134;SDS011;28312;43.460;11.810;2023-03-11T02:08:51;13.38;;;3.45;;
42134;SDS011;28312;43.460;11.810;2023-03-11T02:12:56;4.90;;;1.70;;
42134;SDS011;28312;43.460;11.810;2023-03-11T02:17:03;10.75;;;2.55;;
42134;SDS011;28312;43.460;11.810;2023-03-11T02:21:24;6.93;;;2.05;;
42134;SDS011;28312;43.460;11.810;2023-03-11T02:30:19;9.25;;;2.55;;
42134;SDS011;28312;43.460;11.810;2023-03-11T02:34:26;5.80;;;1.95;;
42134;SDS011;28312;43.460;11.810;2023-03-11T02:38:32;4.88;;;1.70;;
42134;SDS011;28312;43.460;11.810;2023-03-11T02:42:35;3.72;;;1.48;;
42134;SDS011;28312;43.460;11.810;2023-03-11T02:46:39;3.38;;;1.45;;
42134;SDS011;28312;43.460;11.810;2023-03-11T02:54:51;4.82;;;1.48;;
42134;SDS011;28312;43.460;11.810;2023-03-11T02:58:55;2.28;;;0.93;;
42134;SDS011;28312;43.460;11.810;2023-03-11T03:02:59;7.22;;;1.23;;
42134;SDS011;28312;43.460;11.810;2023-03-11T03:07:03;2.30;;;1.27;;
42134;SDS011;28312;43.460;11.810;2023-03-11T03:11:06;6.32;;;1.48;;
42134;SDS011;28312;43.460;11.810;2023-03-11T03:15:10;12.75;;;3.03;;
42134;SDS011;28312;43.460;11.810;2023-03-11T03:19:14;8.95;;;2.70;;
42134;SDS011;28312;43.460;11.810;2023-03-11T03:23:18;10.23;;;2.72;;
42134;SDS011;28312;43.460;11.810;2023-03-11T03:27:22;8.60;;;2.25;;
42134;SDS011;28312;43.460;11.810;2023-03-11T03:31:27;6.03;;;1.45;;
42134;SDS011;28312;43.460;11.810;2023-03-11T03:35:32;4.45;;;1.48;;
42134;SDS011;28312;43.460;11.810;2023-03-11T03:39:41;6.15;;;2.00;;
42134;SDS011;28312;43.460;11.810;2023-03-11T03:43:46;2.67;;;1.23;;
42134;SDS011;28312;43.460;11.810;2023-03-11T03:47:50;2.40;;;0.93;;
42134;SDS011;28312;43.460;11.810;2023-03-11T03:51:55;13.73;;;2.92;;
42134;SDS011;28312;43.460;11.810;2023-03-11T03:56:06;6.32;;;2.58;;
42134;SDS011;28312;43.460;11.810;2023-03-11T04:00:13;6.13;;;2.50;;
42134;SDS011;28312;43.460;11.810;2023-03-11T04:04:22;2.80;;;1.10;;
42134;SDS011;28312;43.460;11.810;2023-03-11T04:08:26;2.33;;;1.10;;
42134;SDS011;28312;43.460;11.810;2023-03-11T04:12:30;6.13;;;2.00;;
42134;SDS011;28312;43.460;11.810;2023-03-11T04:16:37;10.95;;;2.97;;
42134;SDS011;28312;43.460;11.810;2023-03-11T04:20:45;3.58;;;1.30;;
42134;SDS011;28312;43.460;11.810;2023-03-11T04:24:51;4.07;;;1.83;;
42134;SDS011;28312;43.460;11.810;2023-03-11T04:28:55;10.45;;;2.03;;
42134;SDS011;28312;43.460;11.810;2023-03-11T04:33:00;3.67;;;1.60;;
42134;SDS011;28312;43.460;11.810;2023-03-11T04:37:04;10.88;;;2.67;;
42134;SDS011;28312;43.460;11.810;2023-03-11T04:41:10;12.67;;;2.13;;
42134;SDS011;28312;43.460;11.810;2023-03-11T04:45:15;2.80;;;1.20;;
42134;SDS011;28312;43.460;11.810;2023-03-11T04:49:22;7.15;;;1.63;;
42134;SDS011;28312;43.460;11.810;2023-03-11T04:53:27;3.28;;;1.33;;
42134;SDS011;28312;43.460;11.810;2023-03-11T04:57:31;3.08;;;1.42;;
42134;SDS011;28312;43.460;11.810;2023-03-11T05:01:35;2.72;;;0.82;;
42134;SDS011;28312;43.460;11.810;2023-03-11T05:05:41;6.33;;;1.83;;
42134;SDS011;28312;43.460;11.810;2023-03-11T05:09:46;4.35;;;1.20;;
42134;SDS011;28312;43.460;11.810;2023-03-11T05:13:50;3.25;;;1.42;;
42134;SDS011;28312;43.460;11.810;2023-03-11T05:17:54;3.78;;;1.33;;
42134;SDS011;28312;43.460;11.810;2023-03-11T05:21:59;4.95;;;1.60;;
42134;SDS011;28312;43.460;11.810;2023-03-11T05:26:04;6.70;;;1.88;;
42134;SDS011;28312;43.460;11.810;2023-03-11T05:30:09;3.50;;;1.00;;
42134;SDS011;28312;43.460;11.810;2023-03-11T05:34:15;4.70;;;1.23;;
42134;SDS011;28312;43.460;11.810;2023-03-11T05:38:20;8.35;;;2.15;;
42134;SDS011;28312;43.460;11.810;2023-03-11T05:42:24;3.03;;;1.15;;
42134;SDS011;28312;43.460;11.810;2023-03-11T05:46:32;8.45;;;2.63;;
42134;SDS011;28312;43.460;11.810;2023-03-11T05:50:36;7.55;;;1.48;;
42134;SDS011;28312;43.460;11.810;2023-03-11T05:54:41;9.43;;;1.98;;
42134;SDS011;28312;43.460;11.810;2023-03-11T05:58:46;5.10;;;1.20;;
42134;SDS011;28312;43.460;11.810;2023-03-11T06:02:49;4.03;;;1.38;;
42134;SDS011;28312;43.460;11.810;2023-03-11T06:06:54;4.25;;;1.95;;
42134;SDS011;28312;43.460;11.810;2023-03-11T06:11:02;2.30;;;0.80;;
42134;SDS011;28312;43.460;11.810;2023-03-11T06:19:12;5.03;;;1.60;;
42134;SDS011;28312;43.460;11.810;2023-03-11T06:23:20;8.70;;;1.20;;
42134;SDS011;28312;43.460;11.810;2023-03-11T06:27:23;3.42;;;1.10;;
42134;SDS011;28312;43.460;11.810;2023-03-11T06:31:28;4.57;;;1.75;;
42134;SDS011;28312;43.460;11.810;2023-03-11T06:35:38;6.25;;;1.58;;
42134;SDS011;28312;43.460;11.810;2023-03-11T06:39:43;3.25;;;0.93;;
42134;SDS011;28312;43.460;11.810;2023-03-11T06:43:53;4.38;;;1.27;;
42134;SDS011;28312;43.460;11.810;2023-03-11T06:47:57;11.35;;;1.92;;
42134;SDS011;28312;43.460;11.810;2023-03-11T06:52:00;2.53;;;1.20;;
42134;SDS011;28312;43.460;11.810;2023-03-11T07:00:16;4.78;;;1.67;;
42134;SDS011;28312;43.460;11.810;2023-03-11T07:04:25;5.80;;;1.20;;
42134;SDS011;28312;43.460;11.810;2023-03-11T07:08:29;4.45;;;1.63;;
42134;SDS011;28312;43.460;11.810;2023-03-11T07:12:34;2.63;;;0.90;;
42134;SDS011;28312;43.460;11.810;2023-03-11T07:16:38;1.63;;;0.70;;
42134;SDS011;28312;43.460;11.810;2023-03-11T07:20:50;5.15;;;1.50;;
42134;SDS011;28312;43.460;11.810;2023-03-11T07:24:53;13.43;;;2.03;;
42134;SDS011;28312;43.460;11.810;2023-03-11T07:28:57;5.28;;;1.05;;
42134;SDS011;28312;43.460;11.810;2023-03-11T07:33:00;4.05;;;1.30;;
42134;SDS011;28312;43.460;11.810;2023-03-11T07:37:05;3.28;;;1.20;;
42134;SDS011;28312;43.460;11.810;2023-03-11T07:41:09;2.95;;;1.00;;
42134;SDS011;28312;43.460;11.810;2023-03-11T07:45:13;4.50;;;1.75;;
42134;SDS011;28312;43.460;11.810;2023-03-11T07:49:17;7.43;;;2.22;;
42134;SDS011;28312;43.460;11.810;2023-03-11T07:53:21;5.45;;;1.42;;
42134;SDS011;28312;43.460;11.810;2023-03-11T07:57:26;2.47;;;0.73;;
42134;SDS011;28312;43.460;11.810;2023-03-11T08:01:31;4.30;;;1.40;;
42134;SDS011;28312;43.460;11.810;2023-03-11T08:05:42;3.72;;;1.15;;
42134;SDS011;28312;43.460;11.810;2023-03-11T08:09:45;4.82;;;1.30;;
42134;SDS011;28312;43.460;11.810;2023-03-11T08:13:49;4.78;;;1.35;;
42134;SDS011;28312;43.460;11.810;2023-03-11T08:17:53;8.95;;;1.90;;
42134;SDS011;28312;43.460;11.810;2023-03-11T08:21:56;2.92;;;1.38;;
42134;SDS011;28312;43.460;11.810;2023-03-11T08:26:03;6.15;;;1.80;;
42134;SDS011;28312;43.460;11.810;2023-03-11T08:30:11;4.32;;;0.80;;
42134;SDS011;28312;43.460;11.810;2023-03-11T08:34:15;3.35;;;0.68;;
42134;SDS011;28312;43.460;11.810;2023-03-11T08:38:20;1.52;;;0.90;;
42134;SDS011;28312;43.460;11.810;2023-03-11T08:42:24;1.63;;;0.43;;
42134;SDS011;28312;43.460;11.810;2023-03-11T08:50:42;2.33;;;0.90;;
42134;SDS011;28312;43.460;11.810;2023-03-11T08:54:55;1.70;;;0.93;;
42134;SDS011;28312;43.460;11.810;2023-03-11T08:58:59;5.78;;;0.90;;
42134;SDS011;28312;43.460;11.810;2023-03-11T09:03:04;4.70;;;1.00;;
42134;SDS011;28312;43.460;11.810;2023-03-11T09:07:09;2.13;;;0.82;;
42134;SDS011;28312;43.460;11.810;2023-03-11T09:11:14;6.32;;;1.33;;
42134;SDS011;28312;43.460;11.810;2023-03-11T09:15:20;4.30;;;1.63;;
42134;SDS011;28312;43.460;11.810;2023-03-11T09:19:24;7.95;;;2.08;;
42134;SDS011;28312;43.460;11.810;2023-03-11T09:23:27;4.35;;;1.27;;
42134;SDS011;28312;43.460;11.810;2023-03-11T09:27:31;5.15;;;1.60;;
42134;SDS011;28312;43.460;11.810;2023-03-11T09:31:34;2.90;;;0.90;;
42134;SDS011;28312;43.460;11.810;2023-03-11T09:35:38;2.38;;;0.90;;
42134;SDS011;28312;43.460;11.810;2023-03-11T09:39:41;3.47;;;1.23;;
42134;SDS011;28312;43.460;11.810;2023-03-11T09:52:39;6.63;;;1.63;;
42134;SDS011;28312;43.460;11.810;2023-03-11T09:56:48;3.28;;;1.30;;
42134;SDS011;28312;43.460;11.810;2023-03-11T10:00:52;10.07;;;2.65;;
42134;SDS011;28312;43.460;11.810;2023-03-11T10:05:00;5.38;;;1.20;;
42134;SDS011;28312;43.460;11.810;2023-03-11T10:26:11;6.90;;;1.98;;
42134;SDS011;28312;43.460;11.810;2023-03-11T10:30:33;4.85;;;1.60;;
42134;SDS011;28312;43.460;11.810;2023-03-11T10:34:44;8.23;;;1.30;;
42134;SDS011;28312;43.460;11.810;2023-03-11T10:38:56;4.22;;;1.20;;
42134;SDS011;28312;43.460;11.810;2023-03-11T10:43:05;6.50;;;1.70;;
42134;SDS011;28312;43.460;11.810;2023-03-11T10:47:19;2.72;;;1.00;;
42134;SDS011;28312;43.460;11.810;2023-03-11T10:51:25;3.88;;;0.88;;
42134;SDS011;28312;43.460;11.810;2023-03-11T10:55:43;5.38;;;1.33;;
42134;SDS011;28312;43.460;11.810;2023-03-11T10:59:52;7.30;;;2.10;;
42134;SDS011;28312;43.460;11.810;2023-03-11T11:03:59;3.90;;;1.58;;
42134;SDS011;28312;43.460;11.810;2023-03-11T11:08:10;2.85;;;1.00;;
42134;SDS011;28312;43.460;11.810;2023-03-11T11:12:17;4.97;;;2.10;;
42134;SDS011;28312;43.460;11.810;2023-03-11T11:16:23;7.32;;;2.92;;
42134;SDS011;28312;43.460;11.810;2023-03-11T11:20:27;2.42;;;1.15;;
42134;SDS011;28312;43.460;11.810;2023-03-11T11:24:33;5.07;;;1.30;;
42134;SDS011;28312;43.460;11.810;2023-03-11T11:28:36;7.63;;;2.60;;
42134;SDS011;28312;43.460;11.810;2023-03-11T11:32:40;5.10;;;1.25;;
42134;SDS011;28312;43.460;11.810;2023-03-11T11:36:45;3.97;;;0.98;;
42134;SDS011;28312;43.460;11.810;2023-03-11T11:40:49;4.43;;;1.75;;
42134;SDS011;28312;43.460;11.810;2023-03-11T11:44:56;3.00;;;1.38;;
42134;SDS011;28312;43.460;11.810;2023-03-11T11:57:36;2.65;;;1.27;;
42134;SDS011;28312;43.460;11.810;2023-03-11T12:01:43;6.10;;;1.00;;
42134;SDS011;28312;43.460;11.810;2023-03-11T12:06:00;7.43;;;1.52;;
42134;SDS011;28312;43.460;11.810;2023-03-11T12:27:42;4.72;;;1.23;;
42134;SDS011;28312;43.460;11.810;2023-03-11T12:31:51;3.70;;;0.98;;
42134;SDS011;28312;43.460;11.810;2023-03-11T12:35:57;2.10;;;1.10;;
42134;SDS011;28312;43.460;11.810;2023-03-11T12:40:37;2.70;;;1.15;;
42134;SDS011;28312;43.460;11.810;2023-03-11T12:44:51;4.53;;;1.75;;
42134;SDS011;28312;43.460;11.810;2023-03-11T12:49:10;4.53;;;1.10;;
42134;SDS011;28312;43.460;11.810;2023-03-11T12:53:17;14.50;;;4.80;;
42134;SDS011;28312;43.460;11.810;2023-03-11T13:01:46;7.27;;;2.57;;
42134;SDS011;28312;43.460;11.810;2023-03-11T13:14:44;7.03;;;2.60;;
42134;SDS011;28312;43.460;11.810;2023-03-11T13:18:48;4.32;;;2.17;;
42134;SDS011;28312;43.460;11.810;2023-03-11T13:27:06;4.65;;;1.83;;
42134;SDS011;28312;43.460;11.810;2023-03-11T13:31:28;2.55;;;1.27;;
42134;SDS011;28312;43.460;11.810;2023-03-11T13:40:01;7.68;;;3.38;;
42134;SDS011;28312;43.460;11.810;2023-03-11T13:48:37;9.45;;;3.78;;
42134;SDS011;28312;43.460;11.810;2023-03-11T13:52:48;5.88;;;3.15;;
42134;SDS011;28312;43.460;11.810;2023-03-11T13:56:56;8.48;;;3.13;;
42134;SDS011;28312;43.460;11.810;2023-03-11T14:01:01;6.28;;;3.08;;
42134;SDS011;28312;43.460;11.810;2023-03-11T14:05:05;8.10;;;2.80;;
42134;SDS011;28312;43.460;11.810;2023-03-11T14:09:19;7.72;;;2.92;;
42134;SDS011;28312;43.460;11.810;2023-03-11T14:13:25;5.68;;;3.45;;
42134;SDS011;28312;43.460;11.810;2023-03-11T14:21:44;5.00;;;2.85;;
42134;SDS011;28312;43.460;11.810;2023-03-11T14:25:56;4.17;;;1.90;;
42134;SDS011;28312;43.460;11.810;2023-03-11T14:30:17;9.82;;;3.92;;
42134;SDS011;28312;43.460;11.810;2023-03-11T14:34:26;5.63;;;2.10;;
42134;SDS011;28312;43.460;11.810;2023-03-11T14:38:31;4.50;;;2.20;;
42134;SDS011;28312;43.460;11.810;2023-03-11T14:42:36;4.32;;;2.38;;
42134;SDS011;28312;43.460;11.810;2023-03-11T14:46:42;4.78;;;2.53;;
42134;SDS011;28312;43.460;11.810;2023-03-11T14:50:47;4.65;;;2.38;;
42134;SDS011;28312;43.460;11.810;2023-03-11T14:54:51;8.55;;;5.35;;
42134;SDS011;28312;43.460;11.810;2023-03-11T14:59:16;4.38;;;2.00;;
42134;SDS011;28312;43.460;11.810;2023-03-11T15:03:29;7.50;;;3.38;;
42134;SDS011;28312;43.460;11.810;2023-03-11T15:07:36;4.25;;;2.05;;
42134;SDS011;28312;43.460;11.810;2023-03-11T15:11:47;6.22;;;3.30;;
42134;SDS011;28312;43.460;11.810;2023-03-11T15:15:57;8.65;;;2.67;;
42134;SDS011;28312;43.460;11.810;2023-03-11T15:20:02;6.78;;;3.10;;
42134;SDS011;28312;43.460;11.810;2023-03-11T15:24:17;4.97;;;2.15;;
42134;SDS011;28312;43.460;11.810;2023-03-11T15:28:29;5.43;;;1.92;;
42134;SDS011;28312;43.460;11.810;2023-03-11T15:32:36;7.15;;;3.33;;
42134;SDS011;28312;43.460;11.810;2023-03-11T15:40:54;4.93;;;2.03;;
42134;SDS011;28312;43.460;11.810;2023-03-11T15:45:01;4.82;;;2.88;;
42134;SDS011;28312;43.460;11.810;2023-03-11T15:49:15;5.57;;;2.38;;
42134;SDS011;28312;43.460;11.810;2023-03-11T15:53:21;3.88;;;1.98;;
42134;SDS011;28312;43.460;11.810;2023-03-11T15:57:26;4.30;;;2.60;;
42134;SDS011;28312;43.460;11.810;2023-03-11T16:01:31;10.15;;;3.50;;
42134;SDS011;28312;43.460;11.810;2023-03-11T16:05:35;3.50;;;1.92;;
42134;SDS011;28312;43.460;11.810;2023-03-11T16:09:38;5.85;;;1.85;;
42134;SDS011;28312;43.460;11.810;2023-03-11T16:13:42;2.95;;;1.70;;
42134;SDS011;28312;43.460;11.810;2023-03-11T16:17:45;5.25;;;2.42;;
42134;SDS011;28312;43.460;11.810;2023-03-11T16:21:51;5.63;;;2.22;;
42134;SDS011;28312;43.460;11.810;2023-03-11T16:25:58;3.55;;;1.70;;
42134;SDS011;28312;43.460;11.810;2023-03-11T16:30:06;4.28;;;1.80;;
42134;SDS011;28312;43.460;11.810;2023-03-11T16:34:10;4.25;;;2.38;;
42134;SDS011;28312;43.460;11.810;2023-03-11T16:38:14;4.38;;;1.20;;
42134;SDS011;28312;43.460;11.810;2023-03-11T16:42:22;5.03;;;2.60;;
42134;SDS011;28312;43.460;11.810;2023-03-11T16:46:26;4.28;;;1.65;;
42134;SDS011;28312;43.460;11.810;2023-03-11T16:50:30;6.63;;;2.35;;
42134;SDS011;28312;43.460;11.810;2023-03-11T16:54:35;4.60;;;2.40;;
42134;SDS011;28312;43.460;11.810;2023-03-11T16:58:40;3.22;;;1.30;;
42134;SDS011;28312;43.460;11.810;2023-03-11T17:02:44;4.57;;;1.65;;
42134;SDS011;28312;43.460;11.810;2023-03-11T17:06:48;3.67;;;1.88;;
42134;SDS011;28312;43.460;11.810;2023-03-11T17:10:52;3.90;;;1.63;;
42134;SDS011;28312;43.460;11.810;2023-03-11T17:14:55;2.80;;;1.58;;
42134;SDS011;28312;43.460;11.810;2023-03-11T17:18:59;4.90;;;2.33;;
42134;SDS011;28312;43.460;11.810;2023-03-11T17:23:03;4.30;;;1.45;;
42134;SDS011;28312;43.460;11.810;2023-03-11T17:27:07;4.60;;;3.00;;
42134;SDS011;28312;43.460;11.810;2023-03-11T17:31:11;3.95;;;1.80;;
42134;SDS011;28312;43.460;11.810;2023-03-11T17:35:16;6.73;;;2.53;;
42134;SDS011;28312;43.460;11.810;2023-03-11T17:39:20;8.13;;;3.58;;
42134;SDS011;28312;43.460;11.810;2023-03-11T17:43:23;9.88;;;3.72;;
42134;SDS011;28312;43.460;11.810;2023-03-11T17:47:28;8.38;;;4.05;;
42134;SDS011;28312;43.460;11.810;2023-03-11T17:51:33;5.30;;;3.05;;
42134;SDS011;28312;43.460;11.810;2023-03-11T17:55:37;4.72;;;2.53;;
42134;SDS011;28312;43.460;11.810;2023-03-11T17:59:42;7.07;;;4.88;;
42134;SDS011;28312;43.460;11.810;2023-03-11T18:03:45;6.13;;;3.53;;
42134;SDS011;28312;43.460;11.810;2023-03-11T18:07:49;3.88;;;2.58;;
42134;SDS011;28312;43.460;11.810;2023-03-11T18:11:53;6.10;;;3.75;;
42134;SDS011;28312;43.460;11.810;2023-03-11T18:15:57;9.00;;;3.95;;
42134;SDS011;28312;43.460;11.810;2023-03-11T18:20:07;6.18;;;2.67;;
42134;SDS011;28312;43.460;11.810;2023-03-11T18:24:11;3.15;;;2.20;;
42134;SDS011;28312;43.460;11.810;2023-03-11T18:28:14;4.57;;;2.63;;
42134;SDS011;28312;43.460;11.810;2023-03-11T18:32:18;6.57;;;3.15;;
42134;SDS011;28312;43.460;11.810;2023-03-11T18:36:26;3.65;;;2.15;;
42134;SDS011;28312;43.460;11.810;2023-03-11T18:40:31;6.93;;;2.88;;
42134;SDS011;28312;43.460;11.810;2023-03-11T18:44:35;6.93;;;2.67;;
42134;SDS011;28312;43.460;11.810;2023-03-11T18:48:38;4.63;;;2.85;;
42134;SDS011;28312;43.460;11.810;2023-03-11T18:52:42;6.43;;;2.72;;
42134;SDS011;28312;43.460;11.810;2023-03-11T18:56:45;4.65;;;2.33;;
42134;SDS011;28312;43.460;11.810;2023-03-11T19:00:48;4.38;;;2.92;;
42134;SDS011;28312;43.460;11.810;2023-03-11T19:04:52;8.18;;;4.47;;
42134;SDS011;28312;43.460;11.810;2023-03-11T19:08:56;4.65;;;3.53;;
42134;SDS011;28312;43.460;11.810;2023-03-11T19:13:00;6.93;;;4.45;;
42134;SDS011;28312;43.460;11.810;2023-03-11T19:17:04;4.28;;;2.60;;
42134;SDS011;28312;43.460;11.810;2023-03-11T19:21:09;3.88;;;2.78;;
42134;SDS011;28312;43.460;11.810;2023-03-11T19:25:14;6.63;;;3.35;;
42134;SDS011;28312;43.460;11.810;2023-03-11T19:29:17;5.32;;;3.78;;
42134;SDS011;28312;43.460;11.810;2023-03-11T19:33:22;9.32;;;4.55;;
42134;SDS011;28312;43.460;11.810;2023-03-11T19:37:26;6.65;;;3.45;;
42134;SDS011;28312;43.460;11.810;2023-03-11T19:41:32;6.13;;;4.35;;
42134;SDS011;28312;43.460;11.810;2023-03-11T19:45:35;5.22;;;3.95;;
42134;SDS011;28312;43.460;11.810;2023-03-11T19:49:41;8.65;;;7.13;;
42134;SDS011;28312;43.460;11.810;2023-03-11T19:53:45;8.43;;;4.60;;
42134;SDS011;28312;43.460;11.810;2023-03-11T19:57:49;10.20;;;4.47;;
42134;SDS011;28312;43.460;11.810;2023-03-11T20:01:52;5.40;;;3.28;;
42134;SDS011;28312;43.460;11.810;2023-03-11T20:06:01;6.25;;;3.95;;
42134;SDS011;28312;43.460;11.810;2023-03-11T20:10:07;9.57;;;5.18;;
42134;SDS011;28312;43.460;11.810;2023-03-11T20:14:11;6.38;;;3.90;;
42134;SDS011;28312;43.460;11.810;2023-03-11T20:18:15;6.70;;;4.85;;
42134;SDS011;28312;43.460;11.810;2023-03-11T20:22:20;10.52;;;4.35;;
42134;SDS011;28312;43.460;11.810;2023-03-11T20:26:25;10.98;;;5.93;;
42134;SDS011;28312;43.460;11.810;2023-03-11T20:30:28;12.15;;;7.00;;
42134;SDS011;28312;43.460;11.810;2023-03-11T20:34:32;10.48;;;6.70;;
42134;SDS011;28312;43.460;11.810;2023-03-11T20:38:35;8.35;;;5.43;;
42134;SDS011;28312;43.460;11.810;2023-03-11T20:42:40;8.07;;;5.00;;
42134;SDS011;28312;43.460;11.810;2023-03-11T20:46:48;9.77;;;5.82;;
42134;SDS011;28312;43.460;11.810;2023-03-11T20:50:52;7.45;;;5.40;;
42134;SDS011;28312;43.460;11.810;2023-03-11T20:54:56;6.75;;;4.05;;
42134;SDS011;28312;43.460;11.810;2023-03-11T20:58:59;9.90;;;5.63;;
42134;SDS011;28312;43.460;11.810;2023-03-11T21:03:08;6.47;;;3.53;;
42134;SDS011;28312;43.460;11.810;2023-03-11T21:07:12;7.35;;;5.05;;
42134;SDS011;28312;43.460;11.810;2023-03-11T21:11:16;7.68;;;5.22;;
42134;SDS011;28312;43.460;11.810;2023-03-11T21:15:22;10.10;;;6.03;;
42134;SDS011;28312;43.460;11.810;2023-03-11T21:19:26;8.55;;;4.75;;
42134;SDS011;28312;43.460;11.810;2023-03-11T21:23:29;6.40;;;4.53;;
42134;SDS011;28312;43.460;11.810;2023-03-11T21:27:34;7.68;;;4.47;;
42134;SDS011;28312;43.460;11.810;2023-03-11T21:31:37;8.75;;;5.43;;
42134;SDS011;28312;43.460;11.810;2023-03-11T21:35:41;8.32;;;5.07;;
42134;SDS011;28312;43.460;11.810;2023-03-11T21:39:44;6.65;;;4.82;;
42134;SDS011;28312;43.460;11.810;2023-03-11T21:43:48;7.20;;;5.05;;
42134;SDS011;28312;43.460;11.810;2023-03-11T21:47:52;6.72;;;4.88;;
42134;SDS011;28312;43.460;11.810;2023-03-11T21:51:56;6.15;;;5.13;;
42134;SDS011;28312;43.460;11.810;2023-03-11T21:56:03;5.57;;;3.00;;
42134;SDS011;28312;43.460;11.810;2023-03-11T22:00:08;6.88;;;5.38;;
42134;SDS011;28312;43.460;11.810;2023-03-11T22:04:12;5.15;;;2.80;;
42134;SDS011;28312;43.460;11.810;2023-03-11T22:08:15;4.70;;;3.25;;
42134;SDS011;28312;43.460;11.810;2023-03-11T22:12:19;7.00;;;3.85;;
42134;SDS011;28312;43.460;11.810;2023-03-11T22:16:23;7.35;;;4.63;;
42134;SDS011;28312;43.460;11.810;2023-03-11T22:20:27;7.10;;;3.92;;
42134;SDS011;28312;43.460;11.810;2023-03-11T22:24:31;5.97;;;4.05;;
42134;SDS011;28312;43.460;11.810;2023-03-11T22:28:34;9.48;;;6.07;;
42134;SDS011;28312;43.460;11.810;2023-03-11T22:32:39;9.93;;;5.88;;
42134;SDS011;28312;43.460;11.810;2023-03-11T22:36:43;7.22;;;4.65;;
42134;SDS011;28312;43.460;11.810;2023-03-11T22:40:47;11.68;;;6.40;;
42134;SDS011;28312;43.460;11.810;2023-03-11T22:44:50;5.97;;;5.05;;
42134;SDS011;28312;43.460;11.810;2023-03-11T22:48:54;9.23;;;5.20;;
42134;SDS011;28312;43.460;11.810;2023-03-11T22:52:58;8.73;;;7.13;;
42134;SDS011;28312;43.460;11.810;2023-03-11T22:57:01;7.90;;;5.28;;
42134;SDS011;28312;43.460;11.810;2023-03-11T23:01:05;7.60;;;5.13;;
42134;SDS011;28312;43.460;11.810;2023-03-11T23:05:10;10.95;;;5.82;;
42134;SDS011;28312;43.460;11.810;2023-03-11T23:09:14;5.93;;;5.00;;
42134;SDS011;28312;43.460;11.810;2023-03-11T23:13:18;6.35;;;4.18;;
42134;SDS011;28312;43.460;11.810;2023-03-11T23:17:22;6.63;;;4.43;;
42134;SDS011;28312;43.460;11.810;2023-03-11T23:21:27;6.47;;;4.32;;
42134;SDS011;28312;43.460;11.810;2023-03-11T23:25:33;4.88;;;2.70;;
42134;SDS011;28312;43.460;11.810;2023-03-11T23:29:38;9.48;;;7.60;;
42134;SDS011;28312;43.460;11.810;2023-03-11T23:33:41;10.82;;;5.07;;
42134;SDS011;28312;43.460;11.810;2023-03-11T23:37:46;5.78;;;3.90;;
42134;SDS011;28312;43.460;11.810;2023-03-11T23:41:51;8.75;;;5.00;;
42134;SDS011;28312;43.460;11.810;2023-03-11T23:45:55;5.90;;;4.55;;
42134;SDS011;28312;43.460;11.810;2023-03-11T23:49:59;7.05;;;4.55;;
42134;SDS011;28312;43.460;11.810;2023-03-11T23:54:02;5.18;;;4.63;;
42134;SDS011;28312;43.460;11.810;2023-03-11T23:58:07;4.25;;;2.97;;
